sensor_id;sensor_type;location;lat;lon;timestamp;P1;durP1;ratioP1;P2;durP2;ratioP2
30896;SDS011;64229;52.246;21.054;2023-06-14T00:00:09;24.75;;;15.05;;
30896;SDS011;64229;52.246;21.054;2023-06-14T00:02:37;21.00;;;12.27;;
30896;SDS011;64229;52.246;21.054;2023-06-14T00:05:03;24.30;;;14.82;;
30896;SDS011;64229;52.246;21.054;2023-06-14T00:07:34;23.80;;;13.05;;
30896;SDS011;64229;52.246;21.054;2023-06-14T00:10:09;22.38;;;12.98;;
30896;SDS011;64229;52.246;21.054;2023-06-14T00:12:38;25.23;;;13.65;;
30896;SDS011;64229;52.246;21.054;2023-06-14T00:15:04;22.60;;;12.75;;
30896;SDS011;64229;52.246;21.054;2023-06-14T00:17:30;23.13;;;12.70;;
30896;SDS011;64229;52.246;21.054;2023-06-14T00:19:56;19.02;;;11.80;;
30896;SDS011;64229;52.246;21.054;2023-06-14T00:22:22;20.63;;;12.13;;
30896;SDS011;64229;52.246;21.054;2023-06-14T00:24:53;17.20;;;11.52;;
30896;SDS011;64229;52.246;21.054;2023-06-14T00:27:19;19.95;;;11.30;;
30896;SDS011;64229;52.246;21.054;2023-06-14T00:29:44;19.65;;;10.10;;
30896;SDS011;64229;52.246;21.054;2023-06-14T00:32:10;18.25;;;10.40;;
30896;SDS011;64229;52.246;21.054;2023-06-14T00:34:35;14.00;;;9.50;;
30896;SDS011;64229;52.246;21.054;2023-06-14T00:37:01;17.30;;;10.32;;
30896;SDS011;64229;52.246;21.054;2023-06-14T00:39:26;15.00;;;9.70;;
30896;SDS011;64229;52.246;21.054;2023-06-14T00:41:52;19.75;;;10.25;;
30896;SDS011;64229;52.246;21.054;2023-06-14T00:44:18;18.00;;;9.77;;
30896;SDS011;64229;52.246;21.054;2023-06-14T00:46:44;19.92;;;9.90;;
30896;SDS011;64229;52.246;21.054;2023-06-14T00:49:10;17.77;;;9.80;;
30896;SDS011;64229;52.246;21.054;2023-06-14T00:51:37;18.65;;;9.88;;
30896;SDS011;64229;52.246;21.054;2023-06-14T00:54:04;20.45;;;9.82;;
30896;SDS011;64229;52.246;21.054;2023-06-14T00:56:29;15.48;;;9.43;;
30896;SDS011;64229;52.246;21.054;2023-06-14T00:58:55;15.63;;;9.63;;
30896;SDS011;64229;52.246;21.054;2023-06-14T01:01:21;14.10;;;8.93;;
30896;SDS011;64229;52.246;21.054;2023-06-14T01:03:47;14.07;;;7.88;;
30896;SDS011;64229;52.246;21.054;2023-06-14T01:06:19;14.18;;;8.48;;
30896;SDS011;64229;52.246;21.054;2023-06-14T01:11:38;14.75;;;8.82;;
30896;SDS011;64229;52.246;21.054;2023-06-14T01:14:11;20.52;;;9.02;;
30896;SDS011;64229;52.246;21.054;2023-06-14T01:16:38;13.82;;;8.18;;
30896;SDS011;64229;52.246;21.054;2023-06-14T01:19:04;14.60;;;8.15;;
30896;SDS011;64229;52.246;21.054;2023-06-14T01:21:31;14.25;;;8.55;;
30896;SDS011;64229;52.246;21.054;2023-06-14T01:24:06;15.98;;;8.23;;
30896;SDS011;64229;52.246;21.054;2023-06-14T01:26:32;13.85;;;8.10;;
30896;SDS011;64229;52.246;21.054;2023-06-14T01:28:57;11.77;;;7.57;;
30896;SDS011;64229;52.246;21.054;2023-06-14T01:31:23;15.23;;;8.05;;
30896;SDS011;64229;52.246;21.054;2023-06-14T01:33:50;14.75;;;8.07;;
30896;SDS011;64229;52.246;21.054;2023-06-14T01:36:19;14.75;;;8.02;;
30896;SDS011;64229;52.246;21.054;2023-06-14T01:38:45;14.90;;;7.65;;
30896;SDS011;64229;52.246;21.054;2023-06-14T01:41:13;12.75;;;7.57;;
30896;SDS011;64229;52.246;21.054;2023-06-14T01:43:40;13.00;;;7.40;;
30896;SDS011;64229;52.246;21.054;2023-06-14T01:46:06;12.18;;;7.75;;
30896;SDS011;64229;52.246;21.054;2023-06-14T01:48:33;11.85;;;7.82;;
30896;SDS011;64229;52.246;21.054;2023-06-14T01:50:59;13.88;;;7.93;;
30896;SDS011;64229;52.246;21.054;2023-06-14T01:53:25;15.93;;;8.10;;
30896;SDS011;64229;52.246;21.054;2023-06-14T01:55:50;11.68;;;7.70;;
30896;SDS011;64229;52.246;21.054;2023-06-14T01:58:18;12.13;;;8.02;;
30896;SDS011;64229;52.246;21.054;2023-06-14T02:00:44;15.38;;;6.95;;
30896;SDS011;64229;52.246;21.054;2023-06-14T02:03:10;11.20;;;7.85;;
30896;SDS011;64229;52.246;21.054;2023-06-14T02:05:36;10.55;;;7.15;;
30896;SDS011;64229;52.246;21.054;2023-06-14T02:08:04;16.45;;;7.40;;
30896;SDS011;64229;52.246;21.054;2023-06-14T02:10:30;12.95;;;7.90;;
30896;SDS011;64229;52.246;21.054;2023-06-14T02:12:55;13.48;;;7.22;;
30896;SDS011;64229;52.246;21.054;2023-06-14T02:15:20;14.05;;;7.50;;
30896;SDS011;64229;52.246;21.054;2023-06-14T02:17:46;14.73;;;8.38;;
30896;SDS011;64229;52.246;21.054;2023-06-14T02:20:12;12.10;;;7.22;;
30896;SDS011;64229;52.246;21.054;2023-06-14T02:22:38;11.10;;;6.57;;
30896;SDS011;64229;52.246;21.054;2023-06-14T02:25:04;11.82;;;7.13;;
30896;SDS011;64229;52.246;21.054;2023-06-14T02:27:29;11.65;;;7.00;;
30896;SDS011;64229;52.246;21.054;2023-06-14T02:29:54;13.10;;;6.63;;
30896;SDS011;64229;52.246;21.054;2023-06-14T02:32:20;11.98;;;7.55;;
30896;SDS011;64229;52.246;21.054;2023-06-14T02:34:45;12.77;;;7.32;;
30896;SDS011;64229;52.246;21.054;2023-06-14T02:37:14;16.45;;;7.13;;
30896;SDS011;64229;52.246;21.054;2023-06-14T02:39:42;13.13;;;6.72;;
30896;SDS011;64229;52.246;21.054;2023-06-14T02:42:08;12.65;;;7.00;;
30896;SDS011;64229;52.246;21.054;2023-06-14T02:44:33;11.10;;;7.32;;
30896;SDS011;64229;52.246;21.054;2023-06-14T02:46:58;13.70;;;7.30;;
30896;SDS011;64229;52.246;21.054;2023-06-14T02:49:25;15.15;;;7.45;;
30896;SDS011;64229;52.246;21.054;2023-06-14T02:51:51;11.90;;;7.55;;
30896;SDS011;64229;52.246;21.054;2023-06-14T02:54:16;11.88;;;7.57;;
30896;SDS011;64229;52.246;21.054;2023-06-14T02:56:42;13.27;;;7.00;;
30896;SDS011;64229;52.246;21.054;2023-06-14T02:59:07;12.30;;;7.25;;
30896;SDS011;64229;52.246;21.054;2023-06-14T03:01:34;11.27;;;6.78;;
30896;SDS011;64229;52.246;21.054;2023-06-14T03:04:00;13.30;;;7.28;;
30896;SDS011;64229;52.246;21.054;2023-06-14T03:06:27;10.27;;;7.30;;
30896;SDS011;64229;52.246;21.054;2023-06-14T03:08:54;11.98;;;7.93;;
30896;SDS011;64229;52.246;21.054;2023-06-14T03:11:24;11.50;;;6.97;;
30896;SDS011;64229;52.246;21.054;2023-06-14T03:13:50;15.63;;;7.80;;
30896;SDS011;64229;52.246;21.054;2023-06-14T03:16:16;12.02;;;7.55;;
30896;SDS011;64229;52.246;21.054;2023-06-14T03:18:44;9.82;;;6.78;;
30896;SDS011;64229;52.246;21.054;2023-06-14T03:21:10;15.45;;;8.10;;
30896;SDS011;64229;52.246;21.054;2023-06-14T03:23:36;12.68;;;8.15;;
30896;SDS011;64229;52.246;21.054;2023-06-14T03:26:01;14.10;;;8.23;;
30896;SDS011;64229;52.246;21.054;2023-06-14T03:28:27;12.18;;;7.68;;
30896;SDS011;64229;52.246;21.054;2023-06-14T03:30:52;12.13;;;7.53;;
30896;SDS011;64229;52.246;21.054;2023-06-14T03:33:17;13.50;;;8.48;;
30896;SDS011;64229;52.246;21.054;2023-06-14T03:35:43;11.55;;;8.20;;
30896;SDS011;64229;52.246;21.054;2023-06-14T03:38:08;14.02;;;8.02;;
30896;SDS011;64229;52.246;21.054;2023-06-14T03:40:34;14.23;;;8.07;;
30896;SDS011;64229;52.246;21.054;2023-06-14T03:42:59;12.38;;;8.23;;
30896;SDS011;64229;52.246;21.054;2023-06-14T03:45:25;11.82;;;7.93;;
30896;SDS011;64229;52.246;21.054;2023-06-14T03:47:50;11.82;;;7.40;;
30896;SDS011;64229;52.246;21.054;2023-06-14T03:50:17;13.75;;;7.78;;
30896;SDS011;64229;52.246;21.054;2023-06-14T03:52:43;14.07;;;7.75;;
30896;SDS011;64229;52.246;21.054;2023-06-14T03:55:09;11.77;;;7.55;;
30896;SDS011;64229;52.246;21.054;2023-06-14T03:57:35;11.10;;;7.63;;
30896;SDS011;64229;52.246;21.054;2023-06-14T04:00:00;12.50;;;7.22;;
30896;SDS011;64229;52.246;21.054;2023-06-14T04:02:26;17.27;;;7.65;;
30896;SDS011;64229;52.246;21.054;2023-06-14T04:04:54;9.75;;;6.95;;
30896;SDS011;64229;52.246;21.054;2023-06-14T04:07:20;13.23;;;7.32;;
30896;SDS011;64229;52.246;21.054;2023-06-14T04:09:45;11.57;;;7.15;;
30896;SDS011;64229;52.246;21.054;2023-06-14T04:12:11;12.13;;;7.65;;
30896;SDS011;64229;52.246;21.054;2023-06-14T04:14:37;12.85;;;8.15;;
30896;SDS011;64229;52.246;21.054;2023-06-14T04:17:03;11.10;;;7.28;;
30896;SDS011;64229;52.246;21.054;2023-06-14T04:19:28;11.95;;;7.78;;
30896;SDS011;64229;52.246;21.054;2023-06-14T04:21:53;13.07;;;7.30;;
30896;SDS011;64229;52.246;21.054;2023-06-14T04:24:19;14.48;;;7.47;;
30896;SDS011;64229;52.246;21.054;2023-06-14T04:26:45;11.95;;;7.65;;
30896;SDS011;64229;52.246;21.054;2023-06-14T04:29:12;15.07;;;7.30;;
30896;SDS011;64229;52.246;21.054;2023-06-14T04:31:42;16.08;;;7.60;;
30896;SDS011;64229;52.246;21.054;2023-06-14T04:34:09;12.68;;;7.35;;
30896;SDS011;64229;52.246;21.054;2023-06-14T04:36:40;11.18;;;7.38;;
30896;SDS011;64229;52.246;21.054;2023-06-14T04:39:08;12.90;;;6.95;;
30896;SDS011;64229;52.246;21.054;2023-06-14T04:41:33;11.48;;;6.93;;
30896;SDS011;64229;52.246;21.054;2023-06-14T04:44:00;13.02;;;7.10;;
30896;SDS011;64229;52.246;21.054;2023-06-14T04:46:29;11.32;;;7.32;;
30896;SDS011;64229;52.246;21.054;2023-06-14T04:48:57;11.80;;;6.85;;
30896;SDS011;64229;52.246;21.054;2023-06-14T04:51:23;12.48;;;7.30;;
30896;SDS011;64229;52.246;21.054;2023-06-14T04:53:54;11.50;;;7.15;;
30896;SDS011;64229;52.246;21.054;2023-06-14T04:56:21;15.13;;;7.15;;
30896;SDS011;64229;52.246;21.054;2023-06-14T04:58:47;11.35;;;7.75;;
30896;SDS011;64229;52.246;21.054;2023-06-14T05:01:12;10.63;;;6.63;;
30896;SDS011;64229;52.246;21.054;2023-06-14T05:03:37;11.50;;;7.47;;
30896;SDS011;64229;52.246;21.054;2023-06-14T05:06:03;11.27;;;7.13;;
30896;SDS011;64229;52.246;21.054;2023-06-14T05:08:28;13.00;;;7.43;;
30896;SDS011;64229;52.246;21.054;2023-06-14T05:10:54;13.32;;;6.72;;
30896;SDS011;64229;52.246;21.054;2023-06-14T05:13:20;16.88;;;7.40;;
30896;SDS011;64229;52.246;21.054;2023-06-14T05:15:47;14.88;;;7.35;;
30896;SDS011;64229;52.246;21.054;2023-06-14T05:18:12;19.77;;;8.10;;
30896;SDS011;64229;52.246;21.054;2023-06-14T05:20:38;12.80;;;7.22;;
30896;SDS011;64229;52.246;21.054;2023-06-14T05:23:04;14.32;;;7.15;;
30896;SDS011;64229;52.246;21.054;2023-06-14T05:25:29;12.55;;;7.35;;
30896;SDS011;64229;52.246;21.054;2023-06-14T05:27:55;10.98;;;7.32;;
30896;SDS011;64229;52.246;21.054;2023-06-14T05:30:20;14.55;;;7.78;;
30896;SDS011;64229;52.246;21.054;2023-06-14T05:32:45;12.02;;;8.00;;
30896;SDS011;64229;52.246;21.054;2023-06-14T05:35:11;14.82;;;7.45;;
30896;SDS011;64229;52.246;21.054;2023-06-14T05:37:36;17.40;;;8.20;;
30896;SDS011;64229;52.246;21.054;2023-06-14T05:40:02;16.50;;;8.57;;
30896;SDS011;64229;52.246;21.054;2023-06-14T05:42:32;12.05;;;7.57;;
30896;SDS011;64229;52.246;21.054;2023-06-14T05:44:58;11.50;;;7.63;;
30896;SDS011;64229;52.246;21.054;2023-06-14T05:47:23;13.93;;;8.07;;
30896;SDS011;64229;52.246;21.054;2023-06-14T05:49:48;12.73;;;7.78;;
30896;SDS011;64229;52.246;21.054;2023-06-14T05:52:14;16.73;;;8.23;;
30896;SDS011;64229;52.246;21.054;2023-06-14T05:54:39;14.60;;;8.18;;
30896;SDS011;64229;52.246;21.054;2023-06-14T05:57:04;12.57;;;7.82;;
30896;SDS011;64229;52.246;21.054;2023-06-14T05:59:31;15.27;;;7.75;;
30896;SDS011;64229;52.246;21.054;2023-06-14T06:01:57;11.80;;;7.53;;
30896;SDS011;64229;52.246;21.054;2023-06-14T06:04:22;12.93;;;8.30;;
30896;SDS011;64229;52.246;21.054;2023-06-14T06:06:48;14.63;;;7.95;;
30896;SDS011;64229;52.246;21.054;2023-06-14T06:09:13;11.80;;;8.25;;
30896;SDS011;64229;52.246;21.054;2023-06-14T06:11:39;13.63;;;7.90;;
30896;SDS011;64229;52.246;21.054;2023-06-14T06:14:05;12.98;;;8.27;;
30896;SDS011;64229;52.246;21.054;2023-06-14T06:16:30;14.10;;;8.32;;
30896;SDS011;64229;52.246;21.054;2023-06-14T06:18:55;15.70;;;8.77;;
30896;SDS011;64229;52.246;21.054;2023-06-14T06:21:21;16.67;;;7.93;;
30896;SDS011;64229;52.246;21.054;2023-06-14T06:23:46;16.20;;;8.27;;
30896;SDS011;64229;52.246;21.054;2023-06-14T06:26:12;14.43;;;8.60;;
30896;SDS011;64229;52.246;21.054;2023-06-14T06:28:37;15.43;;;8.45;;
30896;SDS011;64229;52.246;21.054;2023-06-14T06:31:02;13.27;;;8.25;;
30896;SDS011;64229;52.246;21.054;2023-06-14T06:33:28;13.02;;;7.72;;
30896;SDS011;64229;52.246;21.054;2023-06-14T06:35:53;19.70;;;8.35;;
30896;SDS011;64229;52.246;21.054;2023-06-14T06:38:18;14.90;;;7.93;;
30896;SDS011;64229;52.246;21.054;2023-06-14T06:40:44;15.30;;;8.65;;
30896;SDS011;64229;52.246;21.054;2023-06-14T06:43:09;14.02;;;8.18;;
30896;SDS011;64229;52.246;21.054;2023-06-14T06:45:38;15.82;;;7.65;;
30896;SDS011;64229;52.246;21.054;2023-06-14T06:48:04;16.25;;;7.95;;
30896;SDS011;64229;52.246;21.054;2023-06-14T06:50:29;12.88;;;8.20;;
30896;SDS011;64229;52.246;21.054;2023-06-14T06:52:55;16.30;;;8.05;;
30896;SDS011;64229;52.246;21.054;2023-06-14T06:55:20;13.57;;;8.00;;
30896;SDS011;64229;52.246;21.054;2023-06-14T06:57:47;17.48;;;7.78;;
30896;SDS011;64229;52.246;21.054;2023-06-14T07:00:14;17.58;;;8.45;;
30896;SDS011;64229;52.246;21.054;2023-06-14T07:02:40;14.45;;;7.80;;
30896;SDS011;64229;52.246;21.054;2023-06-14T07:05:06;22.67;;;8.65;;
30896;SDS011;64229;52.246;21.054;2023-06-14T07:07:32;11.55;;;7.88;;
30896;SDS011;64229;52.246;21.054;2023-06-14T07:09:57;14.75;;;7.30;;
30896;SDS011;64229;52.246;21.054;2023-06-14T07:12:23;19.48;;;8.50;;
30896;SDS011;64229;52.246;21.054;2023-06-14T07:14:48;13.80;;;8.68;;
30896;SDS011;64229;52.246;21.054;2023-06-14T07:17:14;11.77;;;8.02;;
30896;SDS011;64229;52.246;21.054;2023-06-14T07:19:39;12.52;;;7.43;;
30896;SDS011;64229;52.246;21.054;2023-06-14T07:22:04;11.13;;;7.57;;
30896;SDS011;64229;52.246;21.054;2023-06-14T07:24:30;14.85;;;8.25;;
30896;SDS011;64229;52.246;21.054;2023-06-14T07:26:55;11.95;;;6.88;;
30896;SDS011;64229;52.246;21.054;2023-06-14T07:29:21;12.63;;;8.15;;
30896;SDS011;64229;52.246;21.054;2023-06-14T07:31:46;11.02;;;7.63;;
30896;SDS011;64229;52.246;21.054;2023-06-14T07:34:12;11.80;;;6.65;;
30896;SDS011;64229;52.246;21.054;2023-06-14T07:36:37;10.75;;;6.95;;
30896;SDS011;64229;52.246;21.054;2023-06-14T07:39:03;12.85;;;6.20;;
30896;SDS011;64229;52.246;21.054;2023-06-14T07:41:28;13.75;;;7.65;;
30896;SDS011;64229;52.246;21.054;2023-06-14T07:43:54;11.48;;;6.63;;
30896;SDS011;64229;52.246;21.054;2023-06-14T07:46:20;12.05;;;6.75;;
30896;SDS011;64229;52.246;21.054;2023-06-14T07:48:45;16.40;;;7.38;;
30896;SDS011;64229;52.246;21.054;2023-06-14T07:51:10;9.05;;;5.93;;
30896;SDS011;64229;52.246;21.054;2023-06-14T07:53:36;9.45;;;6.20;;
30896;SDS011;64229;52.246;21.054;2023-06-14T07:56:01;9.43;;;6.05;;
30896;SDS011;64229;52.246;21.054;2023-06-14T07:58:27;11.13;;;6.15;;
30896;SDS011;64229;52.246;21.054;2023-06-14T08:00:53;10.38;;;6.05;;
30896;SDS011;64229;52.246;21.054;2023-06-14T08:03:18;10.57;;;5.65;;
30896;SDS011;64229;52.246;21.054;2023-06-14T08:05:44;11.50;;;6.40;;
30896;SDS011;64229;52.246;21.054;2023-06-14T08:08:10;12.30;;;6.57;;
30896;SDS011;64229;52.246;21.054;2023-06-14T08:10:35;9.95;;;6.05;;
30896;SDS011;64229;52.246;21.054;2023-06-14T08:13:00;9.52;;;5.30;;
30896;SDS011;64229;52.246;21.054;2023-06-14T08:15:25;11.10;;;5.82;;
30896;SDS011;64229;52.246;21.054;2023-06-14T08:17:52;14.80;;;5.53;;
30896;SDS011;64229;52.246;21.054;2023-06-14T08:20:17;11.73;;;5.72;;
30896;SDS011;64229;52.246;21.054;2023-06-14T08:22:42;11.23;;;5.85;;
30896;SDS011;64229;52.246;21.054;2023-06-14T08:25:08;13.60;;;6.15;;
30896;SDS011;64229;52.246;21.054;2023-06-14T08:27:34;11.05;;;6.25;;
30896;SDS011;64229;52.246;21.054;2023-06-14T08:30:00;10.18;;;5.57;;
30896;SDS011;64229;52.246;21.054;2023-06-14T08:32:27;8.27;;;4.82;;
30896;SDS011;64229;52.246;21.054;2023-06-14T08:34:52;10.98;;;6.13;;
30896;SDS011;64229;52.246;21.054;2023-06-14T08:37:17;9.82;;;5.10;;
30896;SDS011;64229;52.246;21.054;2023-06-14T08:39:43;12.50;;;6.10;;
30896;SDS011;64229;52.246;21.054;2023-06-14T08:42:09;8.93;;;5.30;;
30896;SDS011;64229;52.246;21.054;2023-06-14T08:44:35;8.77;;;4.80;;
30896;SDS011;64229;52.246;21.054;2023-06-14T08:47:00;11.73;;;5.05;;
30896;SDS011;64229;52.246;21.054;2023-06-14T08:49:29;10.57;;;5.10;;
30896;SDS011;64229;52.246;21.054;2023-06-14T08:51:59;7.10;;;4.70;;
30896;SDS011;64229;52.246;21.054;2023-06-14T08:54:29;8.93;;;5.22;;
30896;SDS011;64229;52.246;21.054;2023-06-14T08:57:00;7.65;;;4.88;;
30896;SDS011;64229;52.246;21.054;2023-06-14T08:59:27;7.35;;;4.65;;
30896;SDS011;64229;52.246;21.054;2023-06-14T09:01:53;8.73;;;4.85;;
30896;SDS011;64229;52.246;21.054;2023-06-14T09:04:22;8.73;;;5.22;;
30896;SDS011;64229;52.246;21.054;2023-06-14T09:06:49;14.98;;;5.40;;
30896;SDS011;64229;52.246;21.054;2023-06-14T09:09:18;7.90;;;4.80;;
30896;SDS011;64229;52.246;21.054;2023-06-14T09:11:50;10.50;;;5.07;;
30896;SDS011;64229;52.246;21.054;2023-06-14T09:14:17;8.95;;;4.65;;
30896;SDS011;64229;52.246;21.054;2023-06-14T09:16:53;9.80;;;5.93;;
30896;SDS011;64229;52.246;21.054;2023-06-14T09:19:25;8.93;;;5.25;;
30896;SDS011;64229;52.246;21.054;2023-06-14T09:21:51;10.18;;;5.25;;
30896;SDS011;64229;52.246;21.054;2023-06-14T09:24:18;8.73;;;4.60;;
30896;SDS011;64229;52.246;21.054;2023-06-14T09:26:46;13.30;;;4.47;;
30896;SDS011;64229;52.246;21.054;2023-06-14T09:29:12;10.13;;;4.07;;
30896;SDS011;64229;52.246;21.054;2023-06-14T09:31:37;7.90;;;4.85;;
30896;SDS011;64229;52.246;21.054;2023-06-14T09:34:03;7.13;;;4.40;;
30896;SDS011;64229;52.246;21.054;2023-06-14T09:36:31;6.47;;;3.72;;
30896;SDS011;64229;52.246;21.054;2023-06-14T09:38:58;6.40;;;3.28;;
30896;SDS011;64229;52.246;21.054;2023-06-14T09:41:31;10.60;;;4.00;;
30896;SDS011;64229;52.246;21.054;2023-06-14T09:43:58;8.43;;;3.70;;
30896;SDS011;64229;52.246;21.054;2023-06-14T09:46:26;8.05;;;3.80;;
30896;SDS011;64229;52.246;21.054;2023-06-14T09:48:52;6.07;;;3.60;;
30896;SDS011;64229;52.246;21.054;2023-06-14T09:51:18;9.57;;;4.38;;
30896;SDS011;64229;52.246;21.054;2023-06-14T09:53:45;6.65;;;4.00;;
30896;SDS011;64229;52.246;21.054;2023-06-14T09:56:14;12.27;;;4.40;;
30896;SDS011;64229;52.246;21.054;2023-06-14T09:58:46;12.98;;;4.35;;
30896;SDS011;64229;52.246;21.054;2023-06-14T10:01:14;8.27;;;3.80;;
30896;SDS011;64229;52.246;21.054;2023-06-14T10:03:41;7.00;;;4.20;;
30896;SDS011;64229;52.246;21.054;2023-06-14T10:06:09;11.85;;;4.70;;
30896;SDS011;64229;52.246;21.054;2023-06-14T10:08:35;7.75;;;4.30;;
30896;SDS011;64229;52.246;21.054;2023-06-14T10:11:02;7.55;;;3.88;;
30896;SDS011;64229;52.246;21.054;2023-06-14T10:13:28;9.38;;;3.90;;
30896;SDS011;64229;52.246;21.054;2023-06-14T10:16:01;12.68;;;4.15;;
30896;SDS011;64229;52.246;21.054;2023-06-14T10:21:16;6.03;;;3.90;;
30896;SDS011;64229;52.246;21.054;2023-06-14T10:23:51;6.85;;;3.30;;
30896;SDS011;64229;52.246;21.054;2023-06-14T10:26:23;8.90;;;3.75;;
30896;SDS011;64229;52.246;21.054;2023-06-14T10:29:09;5.55;;;3.83;;
30896;SDS011;64229;52.246;21.054;2023-06-14T10:31:44;7.72;;;3.20;;
30896;SDS011;64229;52.246;21.054;2023-06-14T10:34:23;7.97;;;3.42;;
30896;SDS011;64229;52.246;21.054;2023-06-14T10:37:05;9.55;;;3.47;;
30896;SDS011;64229;52.246;21.054;2023-06-14T10:39:42;9.23;;;3.38;;
30896;SDS011;64229;52.246;21.054;2023-06-14T10:42:09;10.20;;;3.38;;
30896;SDS011;64229;52.246;21.054;2023-06-14T10:47:09;6.70;;;3.33;;
30896;SDS011;64229;52.246;21.054;2023-06-14T10:49:39;7.57;;;3.65;;
30896;SDS011;64229;52.246;21.054;2023-06-14T10:52:09;8.25;;;3.72;;
30896;SDS011;64229;52.246;21.054;2023-06-14T10:57:31;8.50;;;2.97;;
30896;SDS011;64229;52.246;21.054;2023-06-14T11:00:00;6.78;;;3.33;;
30896;SDS011;64229;52.246;21.054;2023-06-14T11:02:47;6.32;;;3.03;;
30896;SDS011;64229;52.246;21.054;2023-06-14T11:05:51;10.00;;;3.50;;
30896;SDS011;64229;52.246;21.054;2023-06-14T11:10:43;6.30;;;3.20;;
30896;SDS011;64229;52.246;21.054;2023-06-14T11:13:12;12.85;;;3.85;;
30896;SDS011;64229;52.246;21.054;2023-06-14T11:15:43;9.35;;;3.60;;
30896;SDS011;64229;52.246;21.054;2023-06-14T11:18:09;9.77;;;3.78;;
30896;SDS011;64229;52.246;21.054;2023-06-14T11:20:35;8.70;;;3.88;;
30896;SDS011;64229;52.246;21.054;2023-06-14T11:23:01;8.05;;;3.97;;
30896;SDS011;64229;52.246;21.054;2023-06-14T11:25:27;6.00;;;3.30;;
30896;SDS011;64229;52.246;21.054;2023-06-14T11:27:53;8.88;;;3.33;;
30896;SDS011;64229;52.246;21.054;2023-06-14T11:30:20;6.18;;;3.35;;
30896;SDS011;64229;52.246;21.054;2023-06-14T11:32:46;6.25;;;3.35;;
30896;SDS011;64229;52.246;21.054;2023-06-14T11:35:12;5.63;;;2.83;;
30896;SDS011;64229;52.246;21.054;2023-06-14T11:37:39;10.05;;;2.67;;
30896;SDS011;64229;52.246;21.054;2023-06-14T11:40:07;7.97;;;2.50;;
30896;SDS011;64229;52.246;21.054;2023-06-14T11:42:33;4.45;;;2.55;;
30896;SDS011;64229;52.246;21.054;2023-06-14T11:44:59;4.93;;;2.70;;
30896;SDS011;64229;52.246;21.054;2023-06-14T11:47:31;9.07;;;2.60;;
30896;SDS011;64229;52.246;21.054;2023-06-14T11:50:04;5.45;;;2.35;;
30896;SDS011;64229;52.246;21.054;2023-06-14T11:52:31;7.38;;;2.47;;
30896;SDS011;64229;52.246;21.054;2023-06-14T11:54:56;6.35;;;2.00;;
30896;SDS011;64229;52.246;21.054;2023-06-14T11:57:22;6.55;;;2.58;;
30896;SDS011;64229;52.246;21.054;2023-06-14T11:59:49;4.57;;;2.30;;
30896;SDS011;64229;52.246;21.054;2023-06-14T12:02:15;8.95;;;2.10;;
30896;SDS011;64229;52.246;21.054;2023-06-14T12:04:41;5.78;;;2.20;;
30896;SDS011;64229;52.246;21.054;2023-06-14T12:07:11;14.70;;;3.92;;
30896;SDS011;64229;52.246;21.054;2023-06-14T12:09:39;7.82;;;2.38;;
30896;SDS011;64229;52.246;21.054;2023-06-14T12:12:05;10.10;;;2.80;;
30896;SDS011;64229;52.246;21.054;2023-06-14T12:14:31;2.83;;;1.90;;
30896;SDS011;64229;52.246;21.054;2023-06-14T12:17:06;4.07;;;2.17;;
30896;SDS011;64229;52.246;21.054;2023-06-14T12:19:32;6.53;;;2.10;;
30896;SDS011;64229;52.246;21.054;2023-06-14T12:21:59;5.03;;;2.10;;
30896;SDS011;64229;52.246;21.054;2023-06-14T12:24:29;5.28;;;2.25;;
30896;SDS011;64229;52.246;21.054;2023-06-14T12:26:56;7.32;;;2.65;;
30896;SDS011;64229;52.246;21.054;2023-06-14T12:29:24;2.63;;;2.00;;
30896;SDS011;64229;52.246;21.054;2023-06-14T12:31:50;5.00;;;2.15;;
30896;SDS011;64229;52.246;21.054;2023-06-14T12:34:15;6.43;;;2.60;;
30896;SDS011;64229;52.246;21.054;2023-06-14T12:36:41;3.78;;;2.42;;
30896;SDS011;64229;52.246;21.054;2023-06-14T12:39:09;3.25;;;2.30;;
30896;SDS011;64229;52.246;21.054;2023-06-14T12:41:35;4.78;;;2.50;;
30896;SDS011;64229;52.246;21.054;2023-06-14T12:44:01;3.78;;;2.15;;
30896;SDS011;64229;52.246;21.054;2023-06-14T12:46:29;6.50;;;2.05;;
30896;SDS011;64229;52.246;21.054;2023-06-14T12:48:56;4.03;;;2.28;;
30896;SDS011;64229;52.246;21.054;2023-06-14T12:51:21;5.13;;;2.17;;
30896;SDS011;64229;52.246;21.054;2023-06-14T12:53:47;4.32;;;2.30;;
30896;SDS011;64229;52.246;21.054;2023-06-14T12:56:13;5.22;;;1.83;;
30896;SDS011;64229;52.246;21.054;2023-06-14T12:58:40;4.25;;;1.90;;
30896;SDS011;64229;52.246;21.054;2023-06-14T13:01:06;4.82;;;2.08;;
30896;SDS011;64229;52.246;21.054;2023-06-14T13:03:32;3.53;;;1.60;;
30896;SDS011;64229;52.246;21.054;2023-06-14T13:05:58;8.15;;;1.88;;
30896;SDS011;64229;52.246;21.054;2023-06-14T13:08:24;8.80;;;1.80;;
30896;SDS011;64229;52.246;21.054;2023-06-14T13:10:49;4.90;;;1.60;;
30896;SDS011;64229;52.246;21.054;2023-06-14T13:13:14;3.70;;;1.67;;
30896;SDS011;64229;52.246;21.054;2023-06-14T13:15:40;3.78;;;1.60;;
30896;SDS011;64229;52.246;21.054;2023-06-14T13:18:05;2.67;;;1.70;;
30896;SDS011;64229;52.246;21.054;2023-06-14T13:20:31;5.07;;;2.22;;
30896;SDS011;64229;52.246;21.054;2023-06-14T13:22:57;4.30;;;2.00;;
30896;SDS011;64229;52.246;21.054;2023-06-14T13:25:22;5.63;;;1.90;;
30896;SDS011;64229;52.246;21.054;2023-06-14T13:27:48;7.25;;;1.98;;
30896;SDS011;64229;52.246;21.054;2023-06-14T13:30:13;5.70;;;3.03;;
30896;SDS011;64229;52.246;21.054;2023-06-14T13:32:39;5.47;;;2.15;;
30896;SDS011;64229;52.246;21.054;2023-06-14T13:35:05;5.65;;;1.98;;
30896;SDS011;64229;52.246;21.054;2023-06-14T13:37:30;5.85;;;2.08;;
30896;SDS011;64229;52.246;21.054;2023-06-14T13:39:56;4.55;;;1.90;;
30896;SDS011;64229;52.246;21.054;2023-06-14T13:42:21;4.57;;;1.92;;
30896;SDS011;64229;52.246;21.054;2023-06-14T13:44:46;9.15;;;2.30;;
30896;SDS011;64229;52.246;21.054;2023-06-14T13:47:12;3.53;;;1.77;;
30896;SDS011;64229;52.246;21.054;2023-06-14T13:49:37;4.38;;;2.13;;
30896;SDS011;64229;52.246;21.054;2023-06-14T13:52:02;4.60;;;2.10;;
30896;SDS011;64229;52.246;21.054;2023-06-14T13:54:28;7.57;;;2.05;;
30896;SDS011;64229;52.246;21.054;2023-06-14T13:56:54;4.45;;;1.92;;
30896;SDS011;64229;52.246;21.054;2023-06-14T13:59:19;4.18;;;2.35;;
30896;SDS011;64229;52.246;21.054;2023-06-14T14:01:45;3.00;;;1.85;;
30896;SDS011;64229;52.246;21.054;2023-06-14T14:04:10;3.55;;;2.08;;
30896;SDS011;64229;52.246;21.054;2023-06-14T14:06:36;5.22;;;2.28;;
30896;SDS011;64229;52.246;21.054;2023-06-14T14:09:02;4.75;;;2.28;;
30896;SDS011;64229;52.246;21.054;2023-06-14T14:11:28;3.25;;;1.98;;
30896;SDS011;64229;52.246;21.054;2023-06-14T14:13:54;3.35;;;2.05;;
30896;SDS011;64229;52.246;21.054;2023-06-14T14:16:19;4.63;;;2.15;;
30896;SDS011;64229;52.246;21.054;2023-06-14T14:18:45;8.05;;;2.50;;
30896;SDS011;64229;52.246;21.054;2023-06-14T14:21:11;4.55;;;2.42;;
30896;SDS011;64229;52.246;21.054;2023-06-14T14:23:36;4.25;;;1.98;;
30896;SDS011;64229;52.246;21.054;2023-06-14T14:26:02;4.45;;;2.40;;
30896;SDS011;64229;52.246;21.054;2023-06-14T14:28:29;5.82;;;2.33;;
30896;SDS011;64229;52.246;21.054;2023-06-14T14:30:55;3.90;;;2.10;;
30896;SDS011;64229;52.246;21.054;2023-06-14T14:33:21;4.22;;;2.08;;
30896;SDS011;64229;52.246;21.054;2023-06-14T14:35:46;7.95;;;2.40;;